Data for 10/06/2017

Time Sea-Level Adjusted Pressure Absolute Pressure Temperature Relative Humidity Dew Point   
(mb) (inHg) (mb) (inHg) (C) (F) (%) (C) (F)
00:05 1021 30.15 850 25.1 2.5 36.5 75 -1.5 29.3
00:10 1021 30.15 850 25.1 2.4 36.4 74 -1.7 29
00:15 1021 30.15 850 25.1 2.6 36.7 74 -1.6 29.1
00:20 1021 30.15 850 25.1 2.6 36.6 75 -1.5 29.3
00:25 1021 30.15 850 25.1 2.4 36.4 75 -1.6 29.2
00:30 1021 30.15 850 25.1 2.4 36.4 75 -1.6 29.1
00:35 1021 30.15 850 25.1 2.4 36.3 75 -1.7 29
00:40 1021 30.15 850 25.1 2.3 36.2 75 -1.7 29
00:45 1021 30.15 850 25.1 2.4 36.3 75 -1.7 29
00:50 1021 30.15 850 25.1 2.3 36.2 75 -1.7 28.9
00:55 1021 30.15 850 25.1 2.2 35.9 75 -1.7 28.9
01:00 1021 30.15 850 25.1 1.9 35.5 76 -1.8 28.7
01:05 1021 30.15 850 25.1 1.9 35.4 76 -1.9 28.6
01:10 1021 30.15 850 25.1 2 35.6 75 -1.9 28.6
01:15 1021 30.15 850 25.1 2.1 35.7 75 -1.9 28.7
01:20 1021 30.15 850 25.1 2.2 36 75 -1.8 28.7
01:25 1021 30.15 850 25.1 2.3 36.2 74 -1.9 28.5
01:30 1021 30.15 850 25.1 2.4 36.3 73 -1.9 28.6
01:35 1021 30.15 850 25.1 2.5 36.5 73 -1.9 28.5
01:40 1021 30.15 850 25.1 2.6 36.7 72 -1.8 28.7
01:45 1021 30.15 850 25.1 2.5 36.5 73 -1.8 28.7
01:50 1021 30.15 850 25.1 2.4 36.4 73 -1.9 28.5
01:55 1021 30.15 850 25.1 2.4 36.3 73 -1.9 28.6
02:00 1021 30.15 850 25.1 2.3 36.1 74 -1.9 28.7
02:05 1021 30.15 850 25.1 2.2 35.9 75 -1.9 28.6
02:10 1021 30.15 850 25.1 2.1 35.8 75 -1.9 28.5
02:15 1020 30.12 850 25.1 2.1 35.9 74 -2 28.4
02:20 1020 30.12 850 25.1 2.3 36.1 74 -1.9 28.5
02:25 1020 30.12 850 25.1 2.2 36 73 -2.1 28.3
02:30 1020 30.12 850 25.1 2.5 36.5 72 -2 28.4
02:35 1020 30.12 850 25.1 2.5 36.5 72 -2.1 28.3
02:40 1020 30.12 850 25.1 2.6 36.7 72 -2 28.3
02:45 1020 30.12 850 25.1 2.6 36.7 71 -2 28.3
02:50 1020 30.12 849 25.07 2.5 36.5 72 -2 28.4
02:55 1020 30.12 849 25.07 2.5 36.5 71 -2.2 28
03:00 1020 30.12 849 25.07 2.6 36.7 70 -2.2 28
03:05 1020 30.12 849 25.07 2.8 37.1 69 -2.2 28
03:10 1020 30.12 849 25.07 2.9 37.2 69 -2.1 28.1
03:15 1020 30.12 849 25.07 2.8 37.1 69 -2.2 28
03:20 1020 30.12 849 25.07 3 37.3 69 -2.2 28
03:25 1020 30.12 849 25.07 2.9 37.3 68 -2.4 27.7
03:30 1020 30.12 849 25.07 3 37.3 68 -2.5 27.6
03:35 1020 30.12 849 25.07 3.1 37.6 67 -2.4 27.7
03:40 1020 30.12 849 25.07 3.2 37.7 67 -2.4 27.6
03:45 1020 30.12 849 25.07 3.2 37.7 68 -2.2 28.1
03:50 1020 30.12 849 25.07 3 37.5 68 -2.2 28
03:55 1020 30.12 849 25.07 2.9 37.3 71 -1.8 28.7
04:00 1020 30.12 849 25.07 2.7 36.9 70 -2.1 28.1
04:05 1020 30.12 849 25.07 2.7 36.9 70 -2.1 28.2
04:10 1020 30.12 849 25.07 2.9 37.2 69 -2.3 27.9
04:15 1020 30.12 849 25.07 3 37.4 69 -2.1 28.2
04:20 1020 30.12 849 25.07 3 37.4 70 -1.9 28.5
04:25 1020 30.12 849 25.07 2.8 37.1 72 -1.8 28.7
04:30 1020 30.12 849 25.07 2.6 36.8 70 -2.3 27.8
04:35 1020 30.12 849 25.07 3.3 37.9 64 -2.9 26.8
04:40 1020 30.12 849 25.07 3.4 38.1 66 -2.4 27.7
04:45 1020 30.12 849 25.07 3.1 37.5 70 -1.9 28.5
04:50 1020 30.12 849 25.07 2.4 36.3 72 -2.1 28.2
04:55 1020 30.12 849 25.07 2.5 36.5 71 -2.3 27.9
05:00 1020 30.12 849 25.07 2.5 36.5 71 -2.3 27.9
05:05 1020 30.12 849 25.07 2.4 36.4 71 -2.2 28
05:10 1020 30.12 849 25.07 2.4 36.3 72 -2.1 28.2
05:15 1020 30.12 849 25.07 2.4 36.3 71 -2.3 27.9
05:20 1020 30.12 849 25.07 2.3 36.2 72 -2.2 28
05:25 1020 30.12 849 25.07 2.2 36 72 -2.3 27.9
05:30 1020 30.12 849 25.07 2.1 35.7 73 -2.3 27.8
05:35 1020 30.12 849 25.07 2.1 35.8 71 -2.7 27.2
05:40 1020 30.12 849 25.07 2.5 36.4 69 -2.7 27.1
05:45 1020 30.12 849 25.07 2.6 36.6 68 -2.7 27.1
05:50 1020 30.12 849 25.07 2.5 36.4 69 -2.7 27.1
05:55 1019 30.09 849 25.07 2.4 36.4 69 -2.7 27.2
06:00 1019 30.09 849 25.07 2.3 36.1 70 -2.7 27.2
06:05 1019 30.09 849 25.07 2.2 35.9 72 -2.4 27.7
06:10 1019 30.09 849 25.07 1.8 35.2 74 -2.4 27.6
06:15 1019 30.09 849 25.07 1.4 34.6 76 -2.4 27.6
06:20 1019 30.09 849 25.07 1.1 34 78 -2.4 27.8
06:25 1019 30.09 849 25.07 0.9 33.6 78 -2.5 27.5
06:30 1019 30.09 849 25.07 1.2 34.1 77 -2.4 27.6
06:35 1019 30.09 848 25.04 1.4 34.5 76 -2.5 27.6
06:40 1019 30.09 848 25.04 1.6 34.8 75 -2.4 27.7
06:45 1019 30.09 848 25.04 1.6 34.8 75 -2.4 27.8
06:50 1019 30.09 848 25.04 1.5 34.6 76 -2.4 27.7
06:55 1019 30.09 848 25.04 1.4 34.4 76 -2.4 27.7
07:00 1019 30.09 848 25.04 1.2 34.1 77 -2.5 27.6
07:05 1019 30.09 848 25.04 1.2 34.2 76 -2.6 27.4
07:10 1019 30.09 848 25.04 1.2 34.1 77 -2.4 27.6
07:15 1019 30.09 848 25.04 1.3 34.3 76 -2.5 27.5
07:20 1019 30.09 848 25.04 1.7 35.1 73 -2.6 27.3
07:25 1019 30.09 848 25.04 2 35.6 73 -2.4 27.7
07:30 1019 30.09 848 25.04 2.1 35.8 71 -2.5 27.4
07:35 1019 30.09 848 25.04 2.2 36 70 -2.6 27.4
07:40 1019 30.09 848 25.04 2.4 36.2 70 -2.5 27.5
07:45 1019 30.09 848 25.04 2.2 36 71 -2.5 27.5
07:50 1019 30.09 848 25.04 2 35.6 73 -2.4 27.7
07:55 1019 30.09 848 25.04 1.5 34.6 76 -2.3 27.8
08:00 1019 30.09 848 25.04 1.8 35.2 71 -2.9 26.8
08:05 1019 30.09 848 25.04 2.5 36.5 69 -2.6 27.3
08:10 1019 30.09 848 25.04 2.7 36.9 68 -2.6 27.4
08:15 1019 30.09 848 25.04 2.9 37.2 68 -2.5 27.5
08:20 1019 30.09 848 25.04 3.2 37.7 67 -2.4 27.7
08:25 1019 30.09 849 25.07 3.5 38.3 66 -2.3 27.9
08:30 1019 30.09 848 25.04 3.6 38.5 67 -2.1 28.3
08:35 1019 30.09 848 25.04 3.4 38.1 68 -1.9 28.5
08:40 1019 30.09 848 25.04 3.7 38.6 66 -2.1 28.2
08:45 1019 30.09 848 25.04 4.3 39.7 64 -1.8 28.7
08:50 1019 30.09 848 25.04 4.4 39.9 63 -2 28.4
08:55 1019 30.09 848 25.04 4.6 40.2 64 -1.6 29.1
09:00 1019 30.09 848 25.04 5 41 62 -1.7 29
09:05 1019 30.09 848 25.04 5.2 41.4 62 -1.4 29.4
09:10 1019 30.09 848 25.04 5.5 42 61 -1.3 29.6
09:15 1019 30.09 848 25.04 5.9 42.7 60 -1.2 29.8
09:20 1019 30.09 848 25.04 6.1 43 60 -1.1 30.1
09:25 1019 30.09 848 25.04 6.5 43.8 59 -1 30.2
09:30 1019 30.09 848 25.04 7.1 44.8 57 -0.9 30.4
09:35 1019 30.09 848 25.04 7.1 44.8 57 -0.7 30.7
09:40 1019 30.09 848 25.04 7.3 45.1 57 -0.7 30.8
09:45 1019 30.09 848 25.04 7.8 46 56 -0.6 31
09:50 1019 30.09 849 25.07 8.4 47.2 52 -0.7 30.7
09:55 1019 30.09 849 25.07 9.1 48.3 51 -0.4 31.3
10:00 1019 30.09 849 25.07 9.5 49.2 49 -0.7 30.7
10:05 1020 30.12 849 25.07 9.5 49.1 48 -0.9 30.3
10:10 1019 30.09 849 25.07 9.6 49.3 46 -1.5 29.3
10:15 1019 30.09 849 25.07 10.1 50.2 45 -1.4 29.5
10:20 1019 30.09 849 25.07 10.2 50.4 43 -1.7 29
10:25 1019 30.09 849 25.07 10.2 50.4 45 -1.3 29.7
10:30 1019 30.09 848 25.04 10.3 50.5 42 -1.9 28.6
10:35 1019 30.09 848 25.04 10.4 50.7 43 -1.5 29.3
10:40 1019 30.09 848 25.04 10.6 51 42 -1.7 29
10:45 1019 30.09 848 25.04 10.6 51.2 41 -2 28.5
10:50 1019 30.09 848 25.04 10.8 51.4 40 -2.3 27.8
10:55 1019 30.09 848 25.04 11 51.7 41 -1.7 29
11:00 1019 30.09 848 25.04 10.8 51.5 41 -1.9 28.5
11:05 1019 30.09 848 25.04 11.5 52.7 40 -1.6 29.2
11:10 1019 30.09 848 25.04 11.8 53.2 40 -1.3 29.6
11:15 1019 30.09 848 25.04 11.8 53.3 40 -1.2 29.9
11:20 1019 30.09 848 25.04 12 53.5 40 -1 30.1
11:25 1019 30.09 848 25.04 11.6 53 43 -0.6 30.9
11:30 1019 30.09 848 25.04 11.5 52.7 42 -0.9 30.4
11:35 1019 30.09 848 25.04 11.7 53 40 -1.5 29.2
11:40 1019 30.09 848 25.04 12.3 54.1 39 -1.4 29.6
11:45 1019 30.09 848 25.04 11.7 53.1 41 -0.9 30.4
11:50 1019 30.09 848 25.04 11.6 52.9 39 -1.9 28.7
11:55 1019 30.09 848 25.04 12.6 54.7 37 -1.6 29.1
12:00 1019 30.09 848 25.04 13 55.4 36 -1.7 29
12:05 1018 30.06 848 25.04 13.1 55.6 35 -1.9 28.6
12:10 1018 30.06 848 25.04 13.1 55.6 35 -1.9 28.5
12:15 1018 30.06 848 25.04 13.2 55.7 35 -2 28.4
12:20 1018 30.06 848 25.04 13.8 56.9 33 -2.3 27.9
12:25 1018 30.06 848 25.04 13.4 56.1 33 -2.4 27.6
12:30 1018 30.06 848 25.04 13.7 56.6 33 -2.2 28
12:35 1018 30.06 848 25.04 13.7 56.7 32 -2.7 27.2
12:40 1018 30.06 847 25.01 13.9 56.9 33 -2.1 28.1
12:45 1018 30.06 847 25.01 14.1 57.4 33 -2 28.4
12:50 1018 30.06 847 25.01 14.1 57.4 33 -1.9 28.5
12:55 1018 30.06 847 25.01 14.2 57.6 32 -2.2 28.1
13:00 1018 30.06 847 25.01 14 57.1 32 -2.5 27.6
13:05 1018 30.06 847 25.01 15.1 59.1 30 -2.4 27.6
13:10 1018 30.06 847 25.01 15 59.1 32 -1.7 29
13:15 1018 30.06 847 25.01 15.1 59.1 31 -2 28.4
13:20 1018 30.06 847 25.01 14.9 58.9 31 -1.8 28.8
13:25 1018 30.06 847 25.01 15.5 59.8 30 -1.8 28.8
13:30 1018 30.06 847 25.01 15.5 59.8 31 -1.4 29.5
13:35 1018 30.06 847 25.01 15.2 59.3 30 -2 28.3
13:40 1018 30.06 847 25.01 15.7 60.2 31 -1.4 29.6
13:45 1018 30.06 847 25.01 15.5 59.9 30 -1.7 28.9
13:50 1018 30.06 847 25.01 15.4 59.8 31 -1.7 29
13:55 1018 30.06 847 25.01 16 60.7 30 -1.7 29
14:00 1018 30.06 847 25.01 15.9 60.5 30 -1.4 29.5
14:05 1018 30.06 847 25.01 15.6 60.2 31 -1.5 29.4
14:10 1017 30.03 847 25.01 16.1 61 29 -1.8 28.8
14:15 1017 30.03 847 25.01 16.4 61.5 29 -1.5 29.3
14:20 1017 30.03 846 24.98 16.2 61.1 30 -1.3 29.6
14:25 1017 30.03 846 24.98 15.8 60.4 31 -1.4 29.4
14:30 1017 30.03 846 24.98 15.3 59.5 32 -1.1 30
14:35 1017 30.03 846 24.98 15.6 60 30 -1.6 29.1
14:40 1017 30.03 846 24.98 15.7 60.3 31 -1.3 29.7
14:45 1017 30.03 846 24.98 15.7 60.2 31 -1.4 29.4
14:50 1017 30.03 846 24.98 16 60.7 29 -2 28.4
14:55 1017 30.03 846 24.98 16.4 61.6 29 -1.6 29.1
15:00 1017 30.03 846 24.98 16.5 61.7 29 -1.5 29.2
15:05 1016 30 846 24.98 17.1 62.7 28 -1.6 29.1
15:10 1016 30 846 24.98 17.3 63.2 27 -1.8 28.8
15:15 1016 30 846 24.98 16.9 62.4 29 -1.4 29.6
15:20 1016 30 845 24.95 16.3 61.3 30 -1.3 29.7
15:25 1016 30 845 24.95 15.6 60 31 -1.3 29.7
15:30 1016 30 845 24.95 15 59 33 -0.9 30.3
15:35 1016 30 845 24.95 14.8 58.6 32 -1.5 29.3
15:40 1016 30 846 24.98 14.8 58.6 35 -0.6 30.9
15:45 1016 30 845 24.95 14.7 58.4 33 -1.5 29.3
15:50 1016 30 845 24.95 15.5 59.8 31 -1.3 29.7
15:55 1016 30 845 24.95 15.4 59.6 32 -1.2 29.8
16:00 1016 30 845 24.95 15.1 59.1 31 -1.6 29.1
16:05 1016 30 845 24.95 14.9 58.8 32 -1.4 29.4
16:10 1016 30 845 24.95 15 58.9 32 -1.4 29.5
16:15 1016 30 845 24.95 15.3 59.6 32 -1.2 29.8
16:20 1016 30 845 24.95 15 59 32 -1.4 29.5
16:25 1016 30 845 24.95 14.4 58 33 -1.4 29.4
16:30 1016 30 845 24.95 14.3 57.8 33 -1.5 29.3
16:35 1016 30 845 24.95 14.1 57.4 34 -1.6 29.1
16:40 1016 30 845 24.95 14.2 57.5 34 -1.4 29.4
16:45 1016 30 845 24.95 14.6 58.3 32 -1.7 28.9
16:50 1016 30 845 24.95 14.7 58.4 33 -1.5 29.4
16:55 1016 30 845 24.95 14.8 58.6 32 -1.6 29.1
17:00 1016 30 845 24.95 14.8 58.7 33 -1.4 29.5
17:05 1016 30 845 24.95 15.3 59.5 32 -1.3 29.7
17:10 1016 30 845 24.95 15.8 60.4 32 -0.9 30.4
17:15 1015 29.97 845 24.95 15.5 59.8 31 -1.5 29.4
17:20 1015 29.97 845 24.95 16 60.8 31 -1 30.2
17:25 1015 29.97 844 24.92 15.8 60.5 32 -0.9 30.3
17:30 1015 29.97 844 24.92 15.6 60 31 -1.3 29.6
17:35 1015 29.97 844 24.92 15.9 60.5 32 -0.9 30.4
17:40 1015 29.97 844 24.92 16 60.8 31 -1.2 29.9
17:45 1015 29.97 844 24.92 16.2 61.2 31 -0.9 30.3
17:50 1015 29.97 844 24.92 15.9 60.7 32 -0.8 30.6
17:55 1015 29.97 844 24.92 15.9 60.6 31 -1 30.2
18:00 1014 29.94 844 24.92 15.9 60.7 36 1 33.8
18:05 1014 29.94 844 24.92 16.2 61.2 31 -0.8 30.6
18:10 1014 29.94 843 24.89 16.3 61.3 32 -0.4 31.3
18:15 1014 29.94 843 24.89 16.5 61.7 31 -0.5 31
18:20 1014 29.94 843 24.89 16.2 61.2 32 -0.3 31.5
18:25 1014 29.94 843 24.89 15.7 60.3 32 -1 30.2
18:30 1014 29.94 843 24.89 15.6 60 33 -0.7 30.8
18:35 1014 29.94 843 24.89 15.3 59.6 33 -0.7 30.7
18:40 1014 29.94 843 24.89 15.1 59.1 33 -1 30.2
18:45 1014 29.94 843 24.89 14.8 58.7 33 -1.4 29.5
18:50 1014 29.94 843 24.89 14.7 58.5 31 -2 28.5
18:55 1014 29.94 843 24.89 14.9 58.8 31 -2 28.4
19:00 1014 29.94 843 24.89 14.9 58.7 31 -1.9 28.6
19:05 1014 29.94 843 24.89 14.8 58.7 31 -2.1 28.3
19:10 1014 29.94 843 24.89 14.8 58.7 31 -2.1 28.2
19:15 1014 29.94 843 24.89 14.8 58.6 31 -2.1 28.3
19:20 1014 29.94 843 24.89 14.6 58.2 32 -1.9 28.7
19:25 1014 29.94 843 24.89 14.3 57.7 33 -1.8 28.8
19:30 1014 29.94 843 24.89 14 57.3 33 -1.8 28.8
19:35 1014 29.94 843 24.89 13.9 57 34 -1.8 28.7
19:40 1014 29.94 843 24.89 13.8 56.8 34 -1.8 28.8
19:45 1014 29.94 843 24.89 13.7 56.7 34 -1.9 28.6
19:50 1014 29.94 843 24.89 13.8 56.8 33 -2 28.5
19:55 1014 29.94 843 24.89 13.8 56.9 33 -2 28.5
20:00 1014 29.94 843 24.89 13.7 56.7 34 -1.9 28.6
20:05 1014 29.94 843 24.89 13.5 56.2 34 -2.1 28.2
20:10 1014 29.94 843 24.89 13.3 56 34 -2 28.4
20:15 1014 29.94 843 24.89 13.3 55.9 35 -1.8 28.8
20:20 1013 29.91 843 24.89 13.6 56.5 32 -2.6 27.3
20:25 1013 29.91 843 24.89 14.3 57.8 31 -2.3 27.8
20:30 1013 29.91 842 24.86 14.5 58.2 31 -2.3 27.8
20:35 1013 29.91 843 24.89 14.6 58.4 31 -2.2 28
20:40 1013 29.91 843 24.89 14.7 58.5 31 -2.2 28.1
20:45 1013 29.91 843 24.89 14.7 58.4 31 -2.2 28
20:50 1014 29.94 843 24.89 14.7 58.4 31 -2.1 28.2
20:55 1014 29.94 843 24.89 14.6 58.3 31 -2.1 28.3
21:00 1014 29.94 843 24.89 14.6 58.2 31 -2.3 27.9
21:05 1014 29.94 843 24.89 14.7 58.4 31 -2.2 28
21:10 1014 29.94 843 24.89 14.7 58.4 30 -2.5 27.4
21:15 1014 29.94 843 24.89 15.1 59.1 29 -2.6 27.4
21:20 1014 29.94 843 24.89 15.2 59.4 30 -2.2 28
21:25 1014 29.94 843 24.89 15.2 59.3 30 -2.2 28.1
21:30 1014 29.94 843 24.89 15 59.1 31 -2 28.4
21:35 1014 29.94 843 24.89 14.7 58.5 31 -2.1 28.3
21:40 1014 29.94 843 24.89 14.6 58.2 31 -2.2 28.1
21:45 1014 29.94 843 24.89 14.6 58.4 31 -2.3 27.9
21:50 1013 29.91 843 24.89 14.8 58.6 31 -2 28.4
21:55 1013 29.91 843 24.89 14.8 58.7 31 -2.2 28.1
22:00 1013 29.91 842 24.86 14.7 58.5 31 -2 28.4
22:05 1013 29.91 842 24.86 14.6 58.2 32 -2.1 28.3
22:10 1013 29.91 842 24.86 14.6 58.2 31 -2.1 28.1
22:15 1013 29.91 842 24.86 14.5 58.1 31 -2.2 28.1
22:20 1013 29.91 842 24.86 14.4 57.8 33 -1.6 29.1
22:25 1013 29.91 842 24.86 14.3 57.7 31 -2.3 27.8
22:30 1013 29.91 842 24.86 14.5 58 32 -1.8 28.8
22:35 1013 29.91 842 24.86 14.2 57.6 33 -1.7 28.9
22:40 1012 29.88 842 24.86 13.9 57.1 34 -1.4 29.4
22:45 1012 29.88 842 24.86 13.8 56.8 34 -1.7 29
22:50 1012 29.88 842 24.86 13.8 56.8 34 -1.7 28.9
22:55 1013 29.91 842 24.86 13.6 56.5 34 -1.9 28.6
23:00 1012 29.88 842 24.86 13.7 56.6 34 -2 28.4
23:05 1013 29.91 842 24.86 13.8 56.8 33 -2.1 28.3
23:10 1013 29.91 842 24.86 14.1 57.3 33 -2 28.4
23:15 1013 29.91 842 24.86 14.3 57.7 32 -2.1 28.2
23:20 1013 29.91 842 24.86 14.4 58 32 -2.1 28.1
23:25 1013 29.91 842 24.86 14.5 58 32 -2 28.4
23:30 1013 29.91 842 24.86 14.4 58 32 -2 28.4
23:35 1013 29.91 842 24.86 14.3 57.7 32 -2 28.4
23:40 1013 29.91 842 24.86 14.1 57.4 32 -2.2 28.1
23:45 1013 29.91 842 24.86 14.1 57.3 32 -2.2 28
23:50 1012 29.88 842 24.86 14 57.3 32 -2.3 27.8
23:55 1012 29.88 842 24.86 14 57.2 32 -2.1 28.1
24:00 1012 29.88 842 24.86 13.8 56.9 33 -2.1 28.3